Hovedside
METAR-TAF:

METAR-TAF

Lufthavner :

Berlevåg lufthavn

Berlevåg, Norge

breddegrad: 70-52N, lengdegrad: 029-02E, høyde over havet: 1 m

Gjeldene værobservasjon

Denne rapporten ble laget for 17 minutter siden, klokken 14:50 UTC
Vind 12 kt fra Vest
Temperatur 13°C
Luftfuktighet 77%
Trykk 1021 hPa
Sikt 10 km eller mer
Få skyer i en høyde av 1500 ft
Brutte skyer i en høyde av 3200 ft

METAR: ENBV 071450Z 27012KT 9999 FEW015 BKN032 13/09 Q1021

Tid: 17:07 (15:07 UTC)

Varsel

Denne rapporten ble laget for 1 time og 7 minutter siden, klokken 14:00 UTC
Varsel gyldig fra 07. klokken 15 UTC til 07. klokken 18 UTC
Vind 12 kt fra Vest-sørvest
Sikt 10 km eller mer
Få skyer i en høyde av 1500 ft
Brutte skyer i en høyde av 3000 ft

TAF: ENBV 071400Z 0715/0718 24012KT 9999 FEW015 BKN030

Værobservasjoner og værvarsel for over 4000 flyplasser (METAR- og TAF-rapporter).

Tilgjengelige stasjoner er representert av de røde og gule prikkene på kartet.

Hold musepekeren over prikken for å se navnet på stasjonen.

Klikk så for å se værobservasjoner og -varsler.

For å forandre kartet kan du klikke på den grønne knappen med svart kryss for å zoome inn, på den grønne knappen med strek for å zoome ut, eller på de grønne pilene for å se tilstøtende kart.


METAR-TAF: